EST,Max TemperatureF,Mean TemperatureF,Min TemperatureF,Max Dew PointF,MeanDew PointF,Min DewpointF,Max Humidity, Mean Humidity, Min Humidity, Max Sea Level PressureIn, Mean Sea Level PressureIn, Min Sea Level PressureIn, Max VisibilityMiles, Mean VisibilityMiles, Min VisibilityMiles, Max Wind SpeedMPH, Mean Wind SpeedMPH, Max Gust SpeedMPH,PrecipitationIn, CloudCover, Events, WindDirDegrees
2012-1-1,45,38,31,40,34,26,93,86,77,29.89,29.65,29.46,10,8,0,30,15,40,0.00,7,Rain-Snow,219
2012-1-2,31,27,23,26,20,14,88,74,59,30.07,29.89,29.80,10,8,1,22,15,29,0.00,8,Snow,291
2012-1-3,24,20,16,12,10,8,76,65,54,30.26,30.21,30.13,10,10,7,22,13,30,0.00,6,Snow,304
2012-1-4,36,28,20,28,19,11,84,69,60,30.12,29.93,29.81,10,10,10,13,9,21,0.00,2,,226
2012-1-5,43,34,24,31,27,24,97,79,48,29.96,29.89,29.74,10,8,4,12,5,16,0.00,1,,223
2012-1-6,53,46,40,35,33,31,75,62,46,29.69,29.65,29.61,10,10,10,14,10,20,0.00,0,,232
2012-1-7,43,38,33,35,30,27,87,72,59,30.14,29.87,29.65,10,10,10,15,8,21,0.00,5,,286
2012-1-8,38,30,23,26,22,19,91,70,47,30.33,30.27,30.16,10,10,10,8,4,,0.00,1,,256
2012-1-9,42,34,27,29,25,22,90,71,44,30.25,30.05,29.87,10,10,10,17,7,23,0.00,1,,218
2012-1-10,47,38,28,33,29,27,98,75,46,30.01,29.94,29.88,10,9,4,12,7,16,0.00,0,,235
2012-1-11,48,38,29,33,31,28,96,73,50,29.83,29.69,29.50,10,9,3,13,6,,0.00,2,,130
2012-1-12,39,38,35,38,36,34,99,94,83,29.47,29.36,29.28,10,4,0,7,3,,0.00,8,Rain,327
2012-1-13,28,24,20,26,20,17,94,85,78,29.88,29.56,29.34,10,5,1,18,11,24,0.00,8,Snow,277
2012-1-14,23,21,18,19,16,13,92,83,75,30.18,30.03,29.91,10,6,1,6,2,,0.00,8,Snow,15
2012-1-15,26,22,18,17,15,13,85,76,67,30.40,30.32,30.21,10,10,5,14,6,21,0.00,4,Snow,158
2012-1-16,44,32,20,38,24,15,96,76,63,30.22,29.95,29.78,10,10,3,17,11,22,0.00,2,,178
2012-1-17,43,36,27,43,37,21,100,96,77,29.90,29.60,29.35,10,3,0,20,6,28,0.00,8,Fog-Rain-Snow,316
2012-1-18,25,20,16,18,14,10,84,72,63,30.23,30.11,29.93,10,10,5,16,9,23,0.00,5,Snow,255
2012-1-19,27,17,7,26,13,-2,93,73,53,30.05,29.84,29.68,10,8,0,25,14,34,0.00,5,Snow,250
2012-1-20,17,9,1,12,3,-3,90,78,60,30.24,30.16,30.08,10,8,1,7,4,,0.00,3,Snow,183
2012-1-21,23,16,9,11,8,6,92,77,52,30.26,30.16,30.06,10,10,7,7,3,,0.00,2,Snow,5
2012-1-22,33,21,9,33,22,7,100,91,82,30.21,30.05,29.84,10,7,1,17,10,24,0.00,7,,141
2012-1-23,48,40,32,47,40,29,99,94,86,29.74,29.54,29.39,10,6,1,24,15,38,0.00,8,Rain,186
2012-1-24,32,31,30,27,25,24,80,77,74,30.25,30.00,29.78,10,10,7,22,15,30,0.00,8,,260
2012-1-25,31,30,28,26,24,22,83,77,72,30.35,30.28,30.16,10,10,7,8,4,,0.00,7,,212
2012-1-26,35,31,27,34,30,25,99,92,87,30.15,29.87,29.58,7,4,1,10,6,,0.00,7,Rain,106
2012-1-27,40,36,32,34,31,26,99,85,59,29.92,29.70,29.51,10,6,1,16,7,25,0.00,5,Snow,284
2012-1-28,34,30,27,33,27,18,99,82,60,29.99,29.81,29.68,10,6,0,31,11,40,0.00,7,Snow,225
2012-1-29,31,28,23,30,23,15,95,83,63,30.14,29.97,29.84,10,6,0,16,9,22,0.00,7,Snow,246
2012-1-30,35,24,14,30,20,13,92,81,66,30.19,30.06,29.88,10,10,3,16,5,24,0.00,4,Snow,171
2012-1-31,56,48,39,46,38,32,83,66,55,29.88,29.84,29.79,10,10,7,18,11,28,0.00,3,Rain,221